Time;durP1;ratioP1;P1;durP2;ratioP2;P2;SDS_P1;SDS_P2;PMS_P1;PMS_P2;Temp;Humidity;BMP_temperature;BMP_pressure;BME280_temperature;BME280_humidity;BME280_pressure;Samples;Min_cycle;Max_cycle;Signal;HPM_P1;HPM_P2
2022/05/12 00:01:22;;;;;;;7.13;1.40;;;;;;;14.73;67.60;101310.69;5091599;28;20050;-67
2022/05/12 00:03:47;;;;;;;5.72;1.13;;;;;;;14.48;68.20;101310.19;5082777;28;20036;-70
2022/05/12 00:06:13;;;;;;;5.85;1.83;;;;;;;14.65;67.81;101317.31;5070986;28;20036;-67
2022/05/12 00:08:38;;;;;;;6.65;1.20;;;;;;;14.29;68.41;101322.22;5071136;28;20036;-68
2022/05/12 00:11:04;;;;;;;7.07;2.08;;;;;;;14.02;69.48;101327.25;5070453;28;20032;-68
2022/05/12 00:13:30;;;;;;;9.27;1.33;;;;;;;14.10;69.17;101330.44;5076207;28;20040;-68
2022/05/12 00:15:55;;;;;;;10.82;1.17;;;;;;;13.88;69.90;101328.53;5082514;28;20032;-70
2022/05/12 00:18:21;;;;;;;4.88;1.15;;;;;;;14.24;68.71;101335.59;5071867;28;20495;-68
2022/05/12 00:20:47;;;;;;;9.52;1.70;;;;;;;14.18;68.59;101347.34;5070656;28;20071;-68
2022/05/12 00:23:27;;;;;;;9.63;1.38;;;;;;;14.17;68.67;101343.00;5082833;28;20381;-66
2022/05/12 00:25:53;;;;;;;11.10;1.65;;;;;;;14.12;68.28;101346.41;5081512;28;20111;-68
2022/05/12 00:28:21;;;;;;;5.78;1.52;;;;;;;14.26;68.00;101360.50;5088503;28;20036;-68
2022/05/12 00:30:48;;;;;;;5.82;1.52;;;;;;;13.97;69.40;101364.97;5084781;28;20455;-70
2022/05/12 00:33:15;;;;;;;3.75;0.90;;;;;;;14.30;67.90;101362.53;5085122;28;20040;-67
2022/05/12 00:35:42;;;;;;;4.07;1.20;;;;;;;14.33;67.85;101372.06;5073677;28;20040;-68
2022/05/12 00:38:09;;;;;;;4.93;1.10;;;;;;;14.27;68.17;101370.25;5085892;28;20089;-67
2022/05/12 00:40:34;;;;;;;8.70;1.95;;;;;;;14.45;67.51;101372.84;5095154;28;20047;-66
2022/05/12 00:43:27;;;;;;;5.03;1.40;;;;;;;14.18;68.01;101379.78;5095003;28;20039;-66
2022/05/12 00:45:53;;;;;;;8.05;1.45;;;;;;;13.89;69.06;101385.06;5075146;28;20040;-68
2022/05/12 00:48:18;;;;;;;9.52;1.65;;;;;;;14.52;67.11;101390.59;5074477;28;20408;-68
2022/05/12 00:50:44;;;;;;;10.00;1.25;;;;;;;14.29;67.47;101390.59;5074411;28;20507;-66
2022/05/12 00:53:12;;;;;;;4.78;1.52;;;;;;;14.23;67.77;101391.53;5107206;28;20044;-70
2022/05/12 00:55:41;;;;;;;9.35;1.58;;;;;;;14.07;68.59;101406.56;5074211;28;20028;-66
2022/05/12 00:58:10;;;;;;;10.27;1.20;;;;;;;14.43;67.45;101402.00;5074321;28;20024;-66
2022/05/12 01:00:37;;;;;;;11.20;1.75;;;;;;;14.02;68.94;101408.31;5074211;28;20116;-66
2022/05/12 01:03:09;;;;;;;15.35;1.50;;;;;;;13.88;69.12;101407.72;5073521;28;20045;-67
2022/05/12 01:05:35;;;;;;;5.47;1.33;;;;;;;13.76;69.54;101414.97;5073740;28;20064;-69
2022/05/12 01:08:01;;;;;;;8.23;2.20;;;;;;;13.82;69.60;101415.94;5074303;28;20045;-68
2022/05/12 01:10:29;;;;;;;5.82;1.30;;;;;;;14.06;68.61;101415.75;5074314;28;20215;-66
2022/05/12 01:12:54;;;;;;;2.88;1.27;;;;;;;13.81;69.54;101422.41;5074397;28;20032;-68
2022/05/12 01:15:24;;;;;;;11.15;1.50;;;;;;;13.81;69.43;101431.34;5106035;28;20051;-67
2022/05/12 01:17:59;;;;;;;4.40;1.10;;;;;;;13.68;70.13;101426.13;5083733;28;20488;-67
2022/05/12 01:20:25;;;;;;;7.72;1.52;;;;;;;13.72;70.55;101429.22;5074139;28;20045;-68
2022/05/12 01:22:59;;;;;;;4.65;1.40;;;;;;;13.91;70.19;101445.09;5073524;28;20044;-67
2022/05/12 01:25:29;;;;;;;4.03;1.35;;;;;;;13.94;70.09;101439.22;5073503;28;20155;-67
2022/05/12 01:27:55;;;;;;;5.63;1.88;;;;;;;13.86;70.28;101441.44;5073620;28;20153;-69
2022/05/12 01:30:22;;;;;;;10.63;1.73;;;;;;;13.81;70.59;101442.13;5074081;28;20028;-68
2022/05/12 01:32:48;;;;;;;8.93;1.65;;;;;;;14.06;69.78;101445.47;5073339;28;20545;-69
2022/05/12 01:35:18;;;;;;;13.32;2.20;;;;;;;13.93;70.32;101453.81;5083245;28;20044;-67
2022/05/12 01:37:45;;;;;;;12.57;2.35;;;;;;;13.92;70.41;101452.13;5072549;28;20119;-68
2022/05/12 01:40:14;;;;;;;5.10;1.50;;;;;;;14.09;69.61;101453.09;5075201;28;22322;-67
2022/05/12 01:42:39;;;;;;;8.60;2.60;;;;;;;13.95;69.97;101458.97;5093814;28;20035;-67
2022/05/12 01:45:06;;;;;;;11.55;2.40;;;;;;;13.87;70.96;101464.69;5092909;28;20036;-71
2022/05/12 01:47:33;;;;;;;4.72;1.92;;;;;;;13.75;71.01;101464.69;5092741;28;20039;-67
2022/05/12 01:49:59;;;;;;;9.70;1.70;;;;;;;13.76;70.92;101465.47;5078397;28;20039;-67
2022/05/12 01:52:24;;;;;;;13.13;1.95;;;;;;;13.72;70.96;101464.31;5073202;28;20191;-67
2022/05/12 01:54:50;;;;;;;7.55;1.95;;;;;;;13.65;71.66;101467.09;5072692;28;20024;-70
2022/05/12 01:57:16;;;;;;;11.70;2.15;;;;;;;13.80;71.25;101470.19;5085789;28;20054;-70
2022/05/12 01:59:41;;;;;;;7.25;2.03;;;;;;;13.72;71.00;101475.13;5093355;28;20029;-68
2022/05/12 02:02:07;;;;;;;8.07;2.25;;;;;;;13.85;70.22;101485.72;5076185;28;20476;-68
2022/05/12 02:04:32;;;;;;;6.55;3.15;;;;;;;13.62;71.12;101491.06;5078603;28;20032;-67
2022/05/12 02:06:57;;;;;;;6.68;1.90;;;;;;;13.64;71.20;101492.44;5079583;28;20036;-68
2022/05/12 02:09:23;;;;;;;11.25;2.65;;;;;;;13.89;70.26;101489.59;5073470;28;20032;-69
2022/05/12 02:11:48;;;;;;;7.65;1.95;;;;;;;13.71;71.18;101495.06;5089993;28;20035;-68
2022/05/12 02:14:14;;;;;;;10.18;2.13;;;;;;;13.99;69.86;101495.28;5072416;28;20525;-67
2022/05/12 02:16:39;;;;;;;12.63;2.35;;;;;;;13.70;70.69;101494.22;5074326;28;20025;-67
2022/05/12 02:19:06;;;;;;;14.18;2.20;;;;;;;13.96;69.79;101499.25;5082920;28;20043;-67
2022/05/12 02:21:32;;;;;;;5.82;1.70;;;;;;;14.04;69.12;101503.50;5092969;28;20075;-67
2022/05/12 02:23:59;;;;;;;11.30;3.08;;;;;;;13.87;70.13;101516.88;5084139;28;20036;-68
2022/05/12 02:26:25;;;;;;;18.38;3.47;;;;;;;13.43;71.70;101505.63;5071564;28;20479;-67
2022/05/12 02:28:50;;;;;;;12.57;2.65;;;;;;;13.59;71.55;101511.22;5071596;28;20036;-68
2022/05/12 02:31:16;;;;;;;6.75;2.38;;;;;;;13.39;71.36;101517.94;5076530;28;20066;-68
2022/05/12 02:33:41;;;;;;;15.73;3.17;;;;;;;13.41;71.87;101518.53;5087799;28;20037;-67
2022/05/12 02:36:07;;;;;;;9.18;3.03;;;;;;;13.77;70.42;101531.97;5072217;28;20033;-66
2022/05/12 02:38:32;;;;;;;9.60;3.33;;;;;;;13.72;70.81;101531.84;5087037;28;20040;-69
2022/05/12 02:40:57;;;;;;;11.80;2.72;;;;;;;13.85;70.42;101528.94;5091794;28;20047;-69
2022/05/12 02:43:23;;;;;;;13.50;2.92;;;;;;;14.08;69.15;101534.41;5081700;28;20349;-69
2022/05/12 02:45:56;;;;;;;8.32;2.92;;;;;;;14.28;67.81;101537.66;5072564;28;20036;-67
2022/05/12 02:48:26;;;;;;;10.32;2.90;;;;;;;13.64;69.65;101538.38;5104122;28;20053;-69
2022/05/12 02:50:52;;;;;;;7.80;2.47;;;;;;;13.73;69.74;101545.13;5076022;28;20032;-68
2022/05/12 02:53:18;;;;;;;9.43;2.97;;;;;;;13.83;69.94;101545.41;5086950;28;20407;-68
2022/05/12 02:55:43;;;;;;;12.60;3.55;;;;;;;13.88;69.55;101550.09;5091781;28;20120;-67
2022/05/12 02:58:09;;;;;;;10.25;3.65;;;;;;;13.85;69.17;101553.25;5091995;28;20032;-67
2022/05/12 03:00:34;;;;;;;14.30;4.07;;;;;;;13.87;69.42;101553.84;5073579;28;20031;-68
2022/05/12 03:03:00;;;;;;;9.73;3.05;;;;;;;13.67;69.70;101556.00;5071869;28;20045;-67
2022/05/12 03:05:27;;;;;;;12.05;3.53;;;;;;;13.59;70.53;101553.59;5084555;28;20039;-69
2022/05/12 03:07:52;;;;;;;7.25;2.85;;;;;;;13.64;70.04;101561.88;5079019;28;20029;-68
2022/05/12 03:10:18;;;;;;;9.80;3.80;;;;;;;13.97;68.83;101563.03;5072143;28;20488;-70
2022/05/12 03:12:43;;;;;;;9.32;3.40;;;;;;;13.86;68.90;101571.94;5072454;28;20435;-68
2022/05/12 03:15:09;;;;;;;12.30;3.78;;;;;;;13.80;69.62;101563.91;5071242;28;20029;-68
2022/05/12 03:17:35;;;;;;;9.60;2.85;;;;;;;14.10;68.56;101567.44;5071038;28;20036;-68
2022/05/12 03:20:03;;;;;;;10.30;3.92;;;;;;;13.84;69.29;101568.63;5071264;28;20044;-67
2022/05/12 03:22:28;;;;;;;13.02;3.42;;;;;;;13.84;69.17;101567.81;5071367;28;20052;-67
2022/05/12 03:24:54;;;;;;;6.38;2.83;;;;;;;13.40;71.24;101573.59;5071812;28;20055;-66
2022/05/12 03:27:19;;;;;;;13.38;4.45;;;;;;;13.79;69.84;101579.31;5072147;28;20491;-68
2022/05/12 03:29:45;;;;;;;11.40;3.70;;;;;;;13.91;69.00;101579.38;5071828;28;20063;-68
2022/05/12 03:32:12;;;;;;;16.17;4.40;;;;;;;13.90;68.97;101588.50;5082543;28;20048;-68
2022/05/12 03:34:39;;;;;;;5.97;2.58;;;;;;;13.74;69.42;101583.72;5073636;28;20476;-67
2022/05/12 03:37:08;;;;;;;9.32;2.55;;;;;;;13.65;69.39;101585.94;5070271;28;20040;-69
2022/05/12 03:39:35;;;;;;;12.55;3.33;;;;;;;14.15;67.79;101586.50;5072450;28;20032;-68
2022/05/12 03:42:02;;;;;;;10.27;4.18;;;;;;;14.19;67.36;101586.88;5071626;28;20045;-67
2022/05/12 03:47:19;;;;;;;17.15;3.90;;;;;;;13.42;70.50;101593.91;5070962;28;20086;-69
2022/05/12 03:49:45;;;;;;;13.15;3.90;;;;;;;13.75;69.92;101593.50;5071585;28;20052;-67
2022/05/12 03:52:11;;;;;;;22.58;4.05;;;;;;;13.71;70.02;101603.94;5071494;28;20480;-68
2022/05/12 03:54:36;;;;;;;13.82;4.70;;;;;;;14.01;68.82;101602.06;5071883;28;20112;-69
2022/05/12 03:57:02;;;;;;;14.50;4.35;;;;;;;14.04;68.20;101598.91;5071199;28;20036;-67
2022/05/12 03:59:28;;;;;;;14.35;4.03;;;;;;;13.60;69.99;101610.09;5072516;28;20041;-68
2022/05/12 04:01:53;;;;;;;17.42;4.85;;;;;;;13.93;68.91;101606.97;5074688;28;20041;-69
2022/05/12 04:04:19;;;;;;;10.70;4.05;;;;;;;13.54;70.71;101602.88;5075120;28;20059;-67
2022/05/12 04:06:44;;;;;;;15.25;4.60;;;;;;;13.44;71.56;101608.00;5075851;28;20064;-66
2022/05/12 04:09:10;;;;;;;15.43;5.05;;;;;;;13.76;69.94;101608.63;5075442;28;20523;-68
2022/05/12 04:11:35;;;;;;;12.10;4.82;;;;;;;13.82;70.12;101622.06;5075341;28;20121;-67
2022/05/12 04:14:04;;;;;;;18.20;5.88;;;;;;;13.34;71.57;101610.41;5075101;28;20052;-71
2022/05/12 04:16:32;;;;;;;12.80;5.93;;;;;;;13.48;71.96;101614.63;5075362;28;20522;-70
2022/05/12 04:18:58;;;;;;;17.40;6.25;;;;;;;13.58;71.23;101620.28;5064960;28;20041;-69
2022/05/12 04:21:23;;;;;;;17.00;6.63;;;;;;;13.66;71.65;101621.88;5069404;28;20052;-69
2022/05/12 04:23:48;;;;;;;19.63;7.75;;;;;;;13.05;73.72;101627.31;5075365;28;20040;-67
2022/05/12 04:26:14;;;;;;;16.05;6.85;;;;;;;13.17;73.38;101629.06;5075028;28;20044;-69
2022/05/12 04:28:39;;;;;;;16.75;8.10;;;;;;;12.93;75.47;101627.16;5062437;28;20039;-68
2022/05/12 04:31:05;;;;;;;16.55;7.72;;;;;;;13.23;74.25;101632.72;5071200;28;20415;-67
2022/05/12 04:36:14;;;;;;;18.17;7.88;;;;;;;13.16;74.92;101637.38;5066661;28;20136;-67
2022/05/12 04:38:40;;;;;;;22.42;9.05;;;;;;;13.23;74.73;101651.63;5089405;28;20135;-69
2022/05/12 04:41:07;;;;;;;18.52;9.90;;;;;;;13.32;74.25;101654.88;5093915;28;20036;-67
2022/05/12 04:43:33;;;;;;;27.70;11.02;;;;;;;13.55;73.67;101649.63;5095184;28;20514;-67
2022/05/12 04:45:58;;;;;;;22.40;10.50;;;;;;;13.51;74.10;101657.34;5094928;28;20024;-68
2022/05/12 04:48:25;;;;;;;23.50;10.73;;;;;;;13.36;74.99;101654.19;5095525;28;20036;-68
2022/05/12 04:50:51;;;;;;;18.40;9.48;;;;;;;13.20;75.38;101654.78;5093556;28;20043;-69
2022/05/12 04:53:16;;;;;;;19.10;10.55;;;;;;;13.47;74.90;101658.00;5095242;28;20407;-68
2022/05/12 04:55:42;;;;;;;19.88;10.57;;;;;;;13.47;74.23;101672.34;5094755;28;20429;-69
2022/05/12 04:58:07;;;;;;;23.52;11.50;;;;;;;13.74;73.98;101675.56;5084571;28;20040;-68
2022/05/12 05:00:37;;;;;;;15.82;9.80;;;;;;;13.65;74.52;101676.94;5074890;28;20116;-67
2022/05/12 05:03:04;;;;;;;21.40;10.55;;;;;;;13.95;73.48;101675.94;5073762;28;20029;-67
2022/05/12 05:05:30;;;;;;;23.67;10.35;;;;;;;13.89;73.50;101682.28;5080562;28;20041;-68
2022/05/12 05:07:56;;;;;;;21.60;10.55;;;;;;;14.15;72.52;101683.81;5079400;28;20036;-69
2022/05/12 05:10:21;;;;;;;24.92;10.65;;;;;;;14.04;72.88;101685.41;5070219;28;20033;-67
2022/05/12 05:12:47;;;;;;;22.75;10.40;;;;;;;13.97;73.25;101700.84;5085880;28;20024;-69
2022/05/12 05:15:14;;;;;;;18.85;10.43;;;;;;;14.01;73.21;101703.97;5083439;28;20541;-69
2022/05/12 05:17:40;;;;;;;24.45;11.48;;;;;;;13.82;73.77;101713.94;5076430;28;20115;-69
2022/05/12 05:20:09;;;;;;;21.17;10.38;;;;;;;13.84;74.43;101719.09;5078792;28;20055;-67
2022/05/12 05:22:34;;;;;;;19.25;10.57;;;;;;;14.19;73.31;101719.31;5084631;28;20089;-68
2022/05/12 05:25:04;;;;;;;23.25;12.00;;;;;;;14.13;72.93;101718.38;5078500;28;20040;-67
2022/05/12 05:27:29;;;;;;;20.98;10.25;;;;;;;14.33;72.84;101710.03;5081996;28;20043;-69
2022/05/12 05:29:55;;;;;;;18.77;11.40;;;;;;;13.88;74.05;101713.03;5082279;28;20024;-70
2022/05/12 05:32:21;;;;;;;18.77;11.35;;;;;;;14.36;73.11;101714.97;5076473;28;20511;-69
2022/05/12 05:34:47;;;;;;;21.33;11.73;;;;;;;14.30;72.61;101722.13;5076562;28;20041;-70
2022/05/12 05:37:13;;;;;;;21.05;10.63;;;;;;;14.26;73.21;101720.88;5083984;28;20373;-69
2022/05/12 05:39:38;;;;;;;19.67;10.90;;;;;;;14.54;73.09;101732.00;5085348;28;20028;-68
2022/05/12 05:42:11;;;;;;;19.25;10.35;;;;;;;14.41;73.13;101740.25;5093889;28;20035;-72
2022/05/12 05:44:36;;;;;;;31.52;10.82;;;;;;;14.59;72.45;101742.09;5094150;28;20040;-68
2022/05/12 05:47:03;;;;;;;20.30;9.95;;;;;;;14.70;72.13;101741.34;5094225;28;20467;-68
2022/05/12 05:49:29;;;;;;;16.10;9.73;;;;;;;14.63;71.85;101744.13;5075040;28;20123;-70
2022/05/12 05:54:40;;;;;;;19.48;8.40;;;;;;;14.99;71.28;101754.00;5053766;28;20051;-68
2022/05/12 05:57:05;;;;;;;17.63;9.25;;;;;;;14.91;71.60;101748.91;5052882;28;20029;-68
2022/05/12 05:59:31;;;;;;;20.38;9.02;;;;;;;14.88;71.26;101752.06;5065208;28;20438;-69
2022/05/12 06:01:57;;;;;;;18.90;8.30;;;;;;;15.14;70.67;101753.53;5064335;28;20132;-69
2022/05/12 06:04:22;;;;;;;19.10;8.20;;;;;;;15.25;69.74;101767.09;5060326;28;20041;-68
2022/05/12 06:06:48;;;;;;;16.17;7.45;;;;;;;15.22;69.81;101783.81;5053618;28;20033;-69
2022/05/12 06:09:14;;;;;;;14.88;6.75;;;;;;;14.73;70.90;101776.88;5052671;28;20068;-68
2022/05/12 06:11:44;;;;;;;16.90;7.43;;;;;;;14.98;71.06;101788.34;5061598;28;20028;-68
2022/05/12 06:14:10;;;;;;;15.95;7.40;;;;;;;15.02;70.59;101786.00;5072767;28;20060;-68
2022/05/12 06:16:36;;;;;;;16.20;6.57;;;;;;;15.39;69.76;101795.63;5078333;28;20126;-67
2022/05/12 06:19:03;;;;;;;18.83;7.63;;;;;;;15.43;69.19;101794.13;5082865;28;20108;-69
2022/05/12 06:21:28;;;;;;;14.30;6.55;;;;;;;15.19;69.36;101791.59;5072346;28;20144;-69
2022/05/12 06:23:56;;;;;;;15.90;6.00;;;;;;;15.66;68.44;101796.84;5090271;28;20087;-68
2022/05/12 06:26:23;;;;;;;14.95;6.05;;;;;;;14.99;69.55;101802.72;5091435;28;20499;-69
2022/05/12 06:28:49;;;;;;;12.45;6.25;;;;;;;15.38;69.10;101810.25;5079079;28;20056;-68
2022/05/12 06:31:24;;;;;;;13.60;6.47;;;;;;;15.56;68.21;101807.47;5070050;28;20112;-69
2022/05/12 06:33:50;;;;;;;13.77;5.75;;;;;;;15.60;68.13;101805.09;5069278;28;20052;-69
2022/05/12 06:36:16;;;;;;;12.35;5.15;;;;;;;15.80;67.19;101814.53;5081741;28;20029;-69
2022/05/12 06:38:41;;;;;;;18.70;7.68;;;;;;;15.92;67.67;101817.22;5074204;28;20106;-67
2022/05/12 06:41:07;;;;;;;11.45;7.00;;;;;;;15.89;67.46;101825.03;5072792;28;20025;-69
2022/05/12 06:43:33;;;;;;;12.23;5.30;;;;;;;15.56;67.55;101820.19;5069819;28;20094;-68
2022/05/12 06:45:59;;;;;;;22.80;5.53;;;;;;;15.96;66.42;101828.44;5072160;28;20032;-69
2022/05/12 06:48:25;;;;;;;21.17;7.30;;;;;;;16.29;65.76;101832.19;5071653;28;20032;-66
2022/05/12 06:50:51;;;;;;;16.80;5.70;;;;;;;16.07;65.67;101838.44;5081888;28;20036;-68
2022/05/12 06:53:16;;;;;;;10.18;5.07;;;;;;;16.20;65.67;101839.03;5070475;28;20043;-68
2022/05/12 06:55:42;;;;;;;13.68;6.22;;;;;;;16.40;65.22;101846.78;5084948;28;20040;-68
2022/05/12 06:58:09;;;;;;;12.90;5.65;;;;;;;16.14;65.57;101833.72;5090870;28;20032;-68
2022/05/12 07:00:35;;;;;;;14.30;4.97;;;;;;;16.13;65.27;101840.22;5076570;28;20460;-67
2022/05/12 07:03:00;;;;;;;10.85;4.97;;;;;;;16.66;63.97;101840.84;5070070;28;20110;-69
2022/05/12 07:05:26;;;;;;;12.65;5.20;;;;;;;16.11;65.40;101853.19;5075811;28;20081;-68
2022/05/12 07:07:53;;;;;;;13.07;5.53;;;;;;;16.62;63.94;101840.53;5087211;28;20036;-67
2022/05/12 07:10:23;;;;;;;16.55;5.90;;;;;;;16.64;63.51;101851.13;5088719;28;20052;-68
2022/05/12 07:12:49;;;;;;;8.93;4.70;;;;;;;16.41;64.08;101849.25;5083965;28;20111;-69
2022/05/12 07:15:15;;;;;;;12.63;4.47;;;;;;;16.56;63.52;101841.47;5075270;28;20618;-67
2022/05/12 07:17:43;;;;;;;10.98;4.72;;;;;;;16.60;63.77;101855.38;5072716;28;20070;-68
2022/05/12 07:28:22;;;;;;;13.27;4.93;;;;;;;17.20;61.96;101862.00;5075271;28;20124;-68
2022/05/12 07:31:03;;;;;;;9.82;4.93;;;;;;;16.84;62.53;101862.41;5084951;28;20020;-68
2022/05/12 07:33:32;;;;;;;13.40;4.07;;;;;;;16.91;62.12;101873.94;5068844;28;20044;-69
2022/05/12 07:36:00;;;;;;;12.55;4.78;;;;;;;16.81;61.54;101864.75;5084928;28;20075;-68
2022/05/12 07:38:26;;;;;;;7.85;4.15;;;;;;;17.03;62.26;101869.28;5071603;28;20079;-69
2022/05/12 07:40:52;;;;;;;13.30;4.22;;;;;;;17.17;61.59;101872.53;5069741;28;20029;-69
2022/05/12 07:43:17;;;;;;;8.90;4.18;;;;;;;17.33;61.69;101877.19;5073694;28;20486;-68
2022/05/12 07:45:43;;;;;;;16.45;5.68;;;;;;;17.59;60.21;101870.31;5085188;28;20101;-69
2022/05/12 07:48:08;;;;;;;8.77;4.30;;;;;;;17.60;59.61;101869.22;5070336;28;20184;-69
2022/05/12 07:50:34;;;;;;;9.40;4.07;;;;;;;17.48;59.56;101877.44;5075675;28;20044;-69
2022/05/12 07:52:59;;;;;;;8.50;3.58;;;;;;;17.36;60.34;101879.38;5068940;28;20064;-68
2022/05/12 07:55:25;;;;;;;7.68;3.88;;;;;;;17.66;60.22;101881.84;5068735;28;20368;-67
2022/05/12 07:57:51;;;;;;;10.65;3.15;;;;;;;17.68;58.91;101891.41;5081736;28;20062;-68
2022/05/12 08:00:17;;;;;;;13.40;4.15;;;;;;;17.41;57.48;101888.44;5078623;28;20399;-67
2022/05/12 08:02:43;;;;;;;11.73;3.00;;;;;;;17.67;55.61;101878.06;5083889;28;20064;-67
2022/05/12 08:05:09;;;;;;;8.20;2.80;;;;;;;17.62;56.69;101881.53;5074335;28;20365;-69
2022/05/12 08:07:34;;;;;;;9.57;2.83;;;;;;;18.08;56.63;101891.25;5069488;28;20041;-69
2022/05/12 08:10:01;;;;;;;9.68;2.60;;;;;;;17.68;55.52;101891.41;5069644;28;20038;-67
2022/05/12 08:12:27;;;;;;;10.00;2.80;;;;;;;18.02;54.84;101894.94;5070343;28;20033;-68
2022/05/12 08:14:53;;;;;;;7.38;3.53;;;;;;;17.85;54.73;101894.94;5077582;28;20033;-67
2022/05/12 08:17:18;;;;;;;4.32;1.90;;;;;;;18.08;54.43;101904.84;5089857;28;20043;-68
2022/05/12 08:19:44;;;;;;;8.65;2.20;;;;;;;18.03;51.57;101910.19;5080595;28;20039;-67
2022/05/12 08:22:09;;;;;;;4.60;2.75;;;;;;;17.94;52.12;101906.25;5071314;28;20037;-68
2022/05/12 08:24:35;;;;;;;5.40;1.80;;;;;;;18.18;51.35;101905.00;5070744;28;20025;-67
2022/05/12 08:27:03;;;;;;;10.10;3.90;;;;;;;18.20;51.42;101911.81;5071767;28;20036;-67
2022/05/12 08:29:28;;;;;;;6.72;2.25;;;;;;;18.47;50.78;101911.16;5078424;28;20032;-67
2022/05/12 08:31:53;;;;;;;7.10;2.25;;;;;;;18.55;49.90;101906.09;5080198;28;20407;-69
2022/05/12 08:34:19;;;;;;;4.13;1.52;;;;;;;18.28;50.48;101908.69;5068235;28;20048;-69
2022/05/12 08:36:44;;;;;;;6.97;1.98;;;;;;;18.66;49.08;101907.88;5069367;28;20029;-67
2022/05/12 08:39:10;;;;;;;6.60;2.38;;;;;;;19.13;49.12;101911.72;5079891;28;20100;-66
2022/05/12 08:42:05;;;;;;;7.68;2.05;;;;;;;19.17;47.95;101921.03;5069650;28;20043;-67
2022/05/12 08:44:38;;;;;;;8.27;2.20;;;;;;;18.79;49.24;101929.28;5077054;28;20044;-67
2022/05/12 08:47:06;;;;;;;9.55;2.30;;;;;;;18.89;48.90;101917.69;5079834;28;20028;-67
2022/05/12 08:49:37;;;;;;;7.50;2.33;;;;;;;19.08;47.87;101919.84;5076959;28;20044;-67
2022/05/12 08:52:21;;;;;;;;;;;;;;;18.51;48.83;101929.47;5086044;28;20031;-67
2022/05/12 08:54:53;;;;;;;7.45;2.25;;;;;;;18.63;48.64;101919.28;5073140;28;19914;-67
2022/05/12 08:57:35;;;;;;;5.43;1.85;;;;;;;18.61;47.88;101917.88;5073330;28;20434;-67
2022/05/12 09:00:07;;;;;;;9.23;2.13;;;;;;;18.86;49.09;101929.94;5072058;28;20056;-66
2022/05/12 09:02:42;;;;;;;7.22;2.00;;;;;;;19.00;47.35;101927.63;5079560;28;20445;-67
2022/05/12 09:05:13;;;;;;;5.97;2.03;;;;;;;18.89;48.54;101932.13;5078273;28;20957;-68
2022/05/12 09:07:53;;;;;;;4.20;2.22;;;;;;;19.22;47.37;101937.44;5075973;28;20120;-67
2022/05/12 09:10:54;;;;;;;7.45;2.65;;;;;;;18.87;49.23;101937.00;5081756;28;20673;-67
2022/05/12 09:13:42;;;;;;;4.40;2.25;;;;;;;18.67;47.51;101963.97;5075166;28;20048;-68
2022/05/12 09:16:14;;;;;;;5.82;2.45;;;;;;;19.03;46.55;101943.47;5081756;28;21065;-65
2022/05/12 09:18:41;;;;;;;8.60;2.33;;;;;;;19.41;46.67;101951.56;5070597;28;20036;-67
2022/05/12 09:21:13;;;;;;;5.53;2.13;;;;;;;19.26;46.16;101957.63;5082035;28;20043;-67
2022/05/12 09:23:39;;;;;;;6.90;2.50;;;;;;;19.19;46.97;101948.03;5082489;28;20539;-66
2022/05/12 09:26:42;;;;;;;5.20;2.55;;;;;;;18.99;46.85;101945.03;5081330;28;20036;-66
2022/05/12 09:29:17;;;;;;;8.07;2.35;;;;;;;19.33;45.20;101946.59;5035498;28;20036;-66
2022/05/12 09:31:51;;;;;;;10.77;2.47;;;;;;;18.92;46.59;101952.59;5029254;28;20037;-66
2022/05/12 09:34:20;;;;;;;6.55;2.38;;;;;;;18.84;46.63;101955.75;5028690;28;20084;-67
2022/05/12 09:36:46;;;;;;;9.82;3.08;;;;;;;19.08;46.21;101944.38;5032856;28;20517;-67
2022/05/12 09:39:31;;;;;;;7.68;2.22;;;;;;;18.81;46.10;101948.13;5030695;28;20084;-66
2022/05/12 09:41:57;;;;;;;9.00;1.80;;;;;;;18.95;44.49;101946.63;5030689;28;20721;-68
2022/05/12 09:44:26;;;;;;;5.28;2.30;;;;;;;19.99;43.78;101939.84;5030771;28;20033;-68
2022/05/12 09:47:00;;;;;;;6.43;1.80;;;;;;;19.63;44.49;101944.19;5030271;28;20079;-69
2022/05/12 09:49:31;;;;;;;8.55;2.20;;;;;;;20.01;43.81;101949.41;5029364;28;20072;-68
2022/05/12 09:51:57;;;;;;;3.25;1.77;;;;;;;19.89;42.56;101946.03;5027644;28;20033;-68
2022/05/12 09:54:28;;;;;;;6.15;1.83;;;;;;;20.08;40.94;101947.31;5029275;28;20071;-67
2022/05/12 09:57:24;;;;;;;4.57;1.92;;;;;;;19.95;41.96;101944.19;5029543;28;20034;-67
2022/05/12 09:59:57;;;;;;;5.63;2.50;;;;;;;19.79;41.72;101935.03;5027593;28;20033;-68
2022/05/12 10:08:24;;;;;;;5.32;1.48;;;;;;;19.75;41.93;101936.63;5075058;28;20145;-69
2022/05/12 10:11:08;;;;;;;6.43;1.40;;;;;;;20.40;41.35;101936.34;5079841;28;20078;-67
2022/05/12 10:13:46;;;;;;;6.13;2.35;;;;;;;20.61;40.00;101934.56;5074155;28;20039;-67
2022/05/12 10:16:15;;;;;;;4.82;1.88;;;;;;;20.01;39.83;101949.41;5068589;28;20044;-69
2022/05/12 10:18:47;;;;;;;2.90;1.30;;;;;;;20.52;40.15;101947.88;5070975;28;20059;-68
2022/05/12 10:21:13;;;;;;;4.55;2.05;;;;;;;20.33;40.11;101940.38;5079566;28;20040;-70
2022/05/12 10:23:38;;;;;;;6.13;1.67;;;;;;;20.54;39.45;101937.50;5074004;28;20159;-68
2022/05/12 10:26:25;;;;;;;5.18;1.67;;;;;;;20.97;38.75;101947.31;5075639;28;20032;-68
2022/05/12 10:29:05;;;;;;;4.13;1.30;;;;;;;21.18;35.92;101940.03;5074709;28;20086;-68
2022/05/12 10:31:37;;;;;;;3.30;1.33;;;;;;;20.86;37.80;101942.88;5071900;28;20043;-70
2022/05/12 10:34:24;;;;;;;4.65;1.88;;;;;;;20.31;38.62;101950.75;5080652;28;20395;-69
2022/05/12 10:37:13;;;;;;;6.97;1.70;;;;;;;20.91;38.32;101938.25;5080399;28;20028;-69
2022/05/12 10:40:17;;;;;;;3.55;1.17;;;;;;;21.00;36.67;101944.88;5088337;28;20080;-68
2022/05/12 10:43:08;;;;;;;5.93;2.05;;;;;;;21.02;37.46;101944.63;5073993;28;20136;-68
2022/05/12 10:45:56;;;;;;;3.58;1.60;;;;;;;20.71;38.98;101942.81;5082385;28;20044;-68
2022/05/12 10:48:41;;;;;;;4.63;1.63;;;;;;;21.15;37.96;101933.19;5076722;28;20044;-69
2022/05/12 10:51:19;;;;;;;3.28;1.10;;;;;;;20.85;36.56;101942.03;5078781;28;20126;-70
2022/05/12 10:54:21;;;;;;;5.05;1.77;;;;;;;21.25;34.72;101949.59;5066004;28;20519;-70
2022/05/12 10:57:25;;;;;;;2.28;0.90;;;;;;;21.09;34.35;101955.31;5070811;28;20032;-69
2022/05/12 11:00:27;;;;;;;3.83;1.00;;;;;;;21.86;35.87;101936.09;5083358;28;20428;-69
2022/05/12 11:02:57;;;;;;;5.75;1.10;;;;;;;21.94;34.82;101941.81;5083751;28;20067;-68
2022/05/12 11:05:47;;;;;;;5.13;2.40;;;;;;;21.82;35.11;101935.78;5078186;28;20060;-67
2022/05/12 11:08:19;;;;;;;6.35;0.95;;;;;;;22.90;35.82;101936.19;5081238;28;20181;-69
2022/05/12 11:10:52;;;;;;;4.10;0.77;;;;;;;22.43;32.37;101936.56;5071177;28;20111;-68
2022/05/12 11:13:17;;;;;;;2.33;0.60;;;;;;;21.93;32.96;101934.72;5089382;28;20040;-68
2022/05/12 11:15:51;;;;;;;3.03;0.85;;;;;;;21.67;34.19;101936.59;5086058;28;20383;-68
2022/05/12 11:18:26;;;;;;;5.65;1.08;;;;;;;22.49;32.63;101925.31;5084985;28;20059;-68
2022/05/12 11:21:25;;;;;;;5.65;1.05;;;;;;;22.13;32.93;101923.72;5076433;28;20048;-70
2022/05/12 11:24:15;;;;;;;3.85;1.10;;;;;;;22.36;33.15;101923.16;5077287;28;20041;-68
2022/05/12 11:27:00;;;;;;;4.63;1.08;;;;;;;22.19;32.67;101922.63;5071464;28;20048;-68
2022/05/12 11:29:51;;;;;;;7.00;1.13;;;;;;;23.18;32.13;101930.00;5072124;28;20063;-71
2022/05/12 11:32:40;;;;;;;2.53;1.08;;;;;;;22.78;32.69;101922.78;5079458;28;20128;-69
2022/05/12 11:35:08;;;;;;;6.72;1.58;;;;;;;22.49;34.35;101927.22;5080244;28;20081;-70
2022/05/12 11:37:43;;;;;;;6.50;1.17;;;;;;;22.41;32.96;101914.09;5090325;28;21717;-69
2022/05/12 11:40:32;;;;;;;3.72;1.10;;;;;;;22.16;33.03;101930.56;5070089;28;20494;-69
2022/05/12 11:45:48;;;;;;;4.80;0.90;;;;;;;22.31;34.10;101911.41;5070456;28;20043;-68
2022/05/12 11:48:40;;;;;;;3.03;1.10;;;;;;;22.08;32.34;101925.66;5071952;28;20036;-69
2022/05/12 11:51:45;;;;;;;4.72;1.38;;;;;;;22.10;32.21;101928.94;5080277;28;20400;-70
2022/05/12 11:54:21;;;;;;;1.42;0.60;;;;;;;21.80;29.36;101924.25;5007906;28;20104;-68
2022/05/12 11:56:51;;;;;;;3.95;0.77;;;;;;;21.85;30.11;101921.56;5010077;28;20712;-70
2022/05/12 11:59:37;;;;;;;2.08;0.57;;;;;;;22.00;28.35;101923.47;5013221;28;20038;-69